Time;durP1;ratioP1;P1;durP2;ratioP2;P2;SDS_P1;SDS_P2;PMS_P1;PMS_P2;Temp;Humidity;BMP_temperature;BMP_pressure;BME280_temperature;BME280_humidity;BME280_pressure;Samples;Min_cycle;Max_cycle;Signal;HPM_P1;HPM_P2
2022/11/12 00:00:13;;;;;;;;;38.75;31.50;;;;;;;;5102959;27;61892;-77
2022/11/12 00:02:38;;;;;;;;;48.50;38.25;;;;;;;;5103414;27;61935;-77
2022/11/12 00:05:03;;;;;;;;;48.50;40.75;;;;;;;;5084858;27;62243;-77
2022/11/12 00:07:29;;;;;;;;;52.00;38.25;;;;;;;;5084142;27;61741;-77
2022/11/12 00:09:54;;;;;;;;;40.75;35.75;;;;;;;;5103060;27;61978;-77
2022/11/12 00:12:19;;;;;;;;;53.50;40.00;;;;;;;;5084893;27;61927;-77
2022/11/12 00:14:44;;;;;;;;;51.25;38.50;;;;;;;;5103027;27;61962;-77
2022/11/12 00:17:10;;;;;;;;;49.50;39.00;;;;;;;;5083448;27;63569;-77
2022/11/12 00:19:35;;;;;;;;;40.50;34.75;;;;;;;;5084241;27;61980;-77
2022/11/12 00:22:00;;;;;;;;;43.75;35.25;;;;;;;;5102373;27;62276;-77
2022/11/12 00:24:25;;;;;;;;;45.00;33.50;;;;;;;;5084620;27;61836;-77
2022/11/12 00:26:51;;;;;;;;;36.50;34.25;;;;;;;;5102606;27;61712;-76
2022/11/12 00:29:16;;;;;;;;;41.25;34.75;;;;;;;;5102334;27;61941;-77
2022/11/12 00:31:41;;;;;;;;;39.00;35.50;;;;;;;;5102904;27;61814;-77
2022/11/12 00:34:06;;;;;;;;;43.25;36.25;;;;;;;;5084518;27;61787;-77
2022/11/12 00:36:32;;;;;;;;;49.25;39.25;;;;;;;;5083455;27;61897;-77
2022/11/12 00:38:57;;;;;;;;;56.25;40.50;;;;;;;;5084376;27;61776;-77
2022/11/12 00:41:22;;;;;;;;;44.25;36.50;;;;;;;;5102834;27;62134;-78
2022/11/12 00:43:48;;;;;;;;;50.25;37.50;;;;;;;;5102913;27;61883;-78
2022/11/12 00:46:13;;;;;;;;;44.00;36.50;;;;;;;;5101687;27;62482;-78
2022/11/12 00:48:38;;;;;;;;;51.75;36.00;;;;;;;;5083614;27;61849;-78
2022/11/12 00:51:04;;;;;;;;;39.25;34.50;;;;;;;;5101889;27;61751;-78
2022/11/12 00:53:30;;;;;;;;;41.00;35.25;;;;;;;;5084438;27;62212;-78
2022/11/12 00:55:59;;;;;;;;;38.50;35.00;;;;;;;;5098144;27;61757;-78
2022/11/12 00:58:24;;;;;;;;;31.75;31.75;;;;;;;;5102550;27;61909;-78
2022/11/12 01:00:49;;;;;;;;;47.50;38.00;;;;;;;;5101577;27;62084;-78
2022/11/12 01:03:14;;;;;;;;;47.75;37.25;;;;;;;;5102620;27;61733;-77
2022/11/12 01:05:40;;;;;;;;;41.25;35.75;;;;;;;;5082960;27;61813;-78
2022/11/12 01:08:05;;;;;;;;;47.50;33.75;;;;;;;;5083827;27;62166;-78
2022/11/12 01:10:30;;;;;;;;;42.75;37.25;;;;;;;;5083962;27;61960;-78
2022/11/12 01:12:55;;;;;;;;;34.75;28.75;;;;;;;;5102638;27;61940;-78
2022/11/12 01:15:21;;;;;;;;;42.50;36.25;;;;;;;;5101158;27;61711;-78
2022/11/12 01:17:46;;;;;;;;;46.00;37.00;;;;;;;;5083662;27;61710;-78
2022/11/12 01:20:11;;;;;;;;;43.25;37.00;;;;;;;;5082902;27;61801;-78
2022/11/12 01:22:36;;;;;;;;;54.25;38.50;;;;;;;;5102544;27;62070;-77
2022/11/12 01:25:02;;;;;;;;;35.50;33.75;;;;;;;;5084417;27;63035;-77
2022/11/12 01:27:27;;;;;;;;;50.75;37.00;;;;;;;;5105621;27;61875;-78
2022/11/12 01:29:52;;;;;;;;;42.00;35.00;;;;;;;;5086964;27;62050;-78
2022/11/12 01:32:18;;;;;;;;;44.25;34.25;;;;;;;;5087524;27;62118;-78
2022/11/12 01:34:43;;;;;;;;;40.25;34.25;;;;;;;;5086032;27;64482;-78
2022/11/12 01:37:08;;;;;;;;;39.75;34.50;;;;;;;;5087203;27;61831;-78
2022/11/12 01:39:33;;;;;;;;;43.75;38.00;;;;;;;;5105507;27;61974;-78
2022/11/12 01:41:59;;;;;;;;;52.75;34.75;;;;;;;;5087504;27;62108;-78
2022/11/12 01:44:28;;;;;;;;;46.50;35.00;;;;;;;;5085956;27;63653;-78
2022/11/12 01:46:53;;;;;;;;;45.75;37.00;;;;;;;;5085883;27;61955;-78
2022/11/12 01:49:45;;;;;;;;;40.25;35.25;;;;;;;;5086479;27;62455;-78
2022/11/12 01:52:13;;;;;;;;;56.25;38.00;;;;;;;;5083082;27;61720;-78
2022/11/12 01:54:39;;;;;;;;;45.25;35.50;;;;;;;;5101077;27;62724;-78
2022/11/12 01:57:05;;;;;;;;;31.50;30.00;;;;;;;;5066721;27;61820;-78
2022/11/12 01:59:36;;;;;;;;;41.75;33.25;;;;;;;;5065889;28;62014;-78
2022/11/12 02:02:01;;;;;;;;;40.50;34.25;;;;;;;;5066353;27;61934;-78
2022/11/12 02:04:27;;;;;;;;;35.00;30.00;;;;;;;;5084021;27;63175;-77
2022/11/12 02:06:54;;;;;;;;;34.75;33.50;;;;;;;;5084637;28;61733;-78
2022/11/12 02:09:19;;;;;;;;;39.75;34.25;;;;;;;;5084793;27;61955;-78
2022/11/12 02:11:45;;;;;;;;;39.25;34.50;;;;;;;;5084975;27;61799;-78
2022/11/12 02:14:11;;;;;;;;;46.25;34.75;;;;;;;;5065829;28;63480;-78
2022/11/12 02:16:41;;;;;;;;;42.75;35.00;;;;;;;;5083360;28;62035;-78
2022/11/12 02:19:08;;;;;;;;;42.00;34.00;;;;;;;;5065970;28;61796;-78
2022/11/12 02:21:34;;;;;;;;;37.00;28.25;;;;;;;;5066406;28;61868;-78
2022/11/12 02:24:19;;;;;;;;;38.75;33.25;;;;;;;;5065570;28;63309;-78
2022/11/12 02:26:50;;;;;;;;;30.00;27.50;;;;;;;;5073065;27;61732;-77
2022/11/12 02:29:15;;;;;;;;;45.00;33.00;;;;;;;;5066059;28;61961;-78
2022/11/12 02:31:40;;;;;;;;;33.75;25.25;;;;;;;;5065416;28;61926;-78
2022/11/12 02:34:06;;;;;;;;;37.25;31.75;;;;;;;;5083907;28;63145;-78
2022/11/12 02:36:31;;;;;;;;;37.50;32.00;;;;;;;;5064577;28;61903;-78
2022/11/12 02:38:57;;;;;;;;;38.00;31.50;;;;;;;;5084188;28;61712;-78
2022/11/12 02:41:23;;;;;;;;;33.75;28.25;;;;;;;;5084631;27;61763;-78
2022/11/12 02:43:49;;;;;;;;;38.50;30.75;;;;;;;;5065169;28;63136;-78
2022/11/12 02:46:14;;;;;;;;;33.00;27.75;;;;;;;;5083804;27;61970;-78
2022/11/12 02:48:39;;;;;;;;;37.00;27.25;;;;;;;;5103637;27;61724;-78
2022/11/12 02:51:05;;;;;;;;;29.00;25.50;;;;;;;;5104560;27;61738;-78
2022/11/12 02:53:31;;;;;;;;;33.50;30.00;;;;;;;;5103899;27;61889;-78
2022/11/12 02:55:57;;;;;;;;;41.50;29.75;;;;;;;;5085895;27;61885;-78
2022/11/12 02:58:22;;;;;;;;;31.75;28.75;;;;;;;;5104566;27;61771;-78
2022/11/12 03:00:48;;;;;;;;;44.75;32.00;;;;;;;;5084963;27;61933;-77
2022/11/12 03:03:13;;;;;;;;;38.75;29.75;;;;;;;;5103838;27;62382;-78
2022/11/12 03:05:38;;;;;;;;;25.50;20.25;;;;;;;;5085722;27;61717;-78
2022/11/12 03:08:05;;;;;;;;;35.50;30.25;;;;;;;;5085979;27;61867;-78
2022/11/12 03:10:31;;;;;;;;;40.00;29.50;;;;;;;;5085990;27;61959;-78
2022/11/12 03:12:57;;;;;;;;;32.25;27.00;;;;;;;;5103330;27;61739;-78
2022/11/12 03:15:23;;;;;;;;;36.75;31.75;;;;;;;;5084817;27;61835;-78
2022/11/12 03:17:48;;;;;;;;;40.50;30.50;;;;;;;;5085602;27;61711;-77
2022/11/12 03:20:14;;;;;;;;;43.00;33.50;;;;;;;;5085436;27;62148;-78
2022/11/12 03:22:40;;;;;;;;;37.00;34.25;;;;;;;;5103445;27;62748;-78
2022/11/12 03:25:06;;;;;;;;;46.75;36.00;;;;;;;;5104038;27;61689;-78
2022/11/12 03:27:31;;;;;;;;;31.50;26.75;;;;;;;;5085453;27;61776;-78
2022/11/12 03:29:57;;;;;;;;;34.50;26.25;;;;;;;;5084803;27;61912;-78
2022/11/12 03:32:22;;;;;;;;;38.50;29.50;;;;;;;;5085018;27;62188;-78
2022/11/12 03:34:47;;;;;;;;;41.50;34.00;;;;;;;;5103840;27;62776;-78
2022/11/12 03:37:13;;;;;;;;;35.75;29.00;;;;;;;;5085327;27;61753;-78
2022/11/12 03:39:38;;;;;;;;;42.00;33.50;;;;;;;;5085479;27;61806;-78
2022/11/12 03:42:03;;;;;;;;;33.00;30.25;;;;;;;;5102961;27;62052;-78
2022/11/12 03:44:28;;;;;;;;;34.75;30.25;;;;;;;;5102863;27;61887;-78
2022/11/12 03:46:54;;;;;;;;;42.50;30.50;;;;;;;;5103383;27;61809;-78
2022/11/12 03:49:19;;;;;;;;;35.75;30.00;;;;;;;;5084471;27;61835;-78
2022/11/12 03:51:45;;;;;;;;;37.00;27.00;;;;;;;;5084504;27;62041;-78
2022/11/12 03:54:10;;;;;;;;;32.75;28.25;;;;;;;;5103485;27;61795;-78
2022/11/12 03:56:36;;;;;;;;;39.50;28.25;;;;;;;;5099862;27;61897;-78
2022/11/12 03:59:01;;;;;;;;;29.00;25.25;;;;;;;;5084330;27;61799;-78
2022/11/12 04:01:26;;;;;;;;;30.75;24.75;;;;;;;;5084114;27;61864;-78
2022/11/12 04:03:52;;;;;;;;;33.75;27.00;;;;;;;;5103101;27;62182;-78
2022/11/12 04:09:01;;;;;;;;;25.00;22.25;;;;;;;;5103437;27;61853;-78
2022/11/12 04:11:26;;;;;;;;;31.50;28.50;;;;;;;;5084540;27;62993;-78
2022/11/12 04:13:51;;;;;;;;;24.25;20.25;;;;;;;;5102653;27;61789;-77
2022/11/12 04:21:55;;;;;;;;;19.50;17.00;;;;;;;;5102795;27;61891;-78
2022/11/12 04:27:06;;;;;;;;;24.50;20.00;;;;;;;;5102486;27;61969;-78
2022/11/12 04:32:20;;;;;;;;;33.00;24.75;;;;;;;;5018963;28;61950;-77
2022/11/12 04:34:46;;;;;;;;;28.50;23.75;;;;;;;;5019459;28;62024;-78
2022/11/12 04:37:11;;;;;;;;;26.75;22.00;;;;;;;;5019184;28;61930;-78
2022/11/12 04:39:36;;;;;;;;;24.25;21.00;;;;;;;;5019775;28;61801;-78
2022/11/12 04:45:04;;;;;;;;;24.50;20.25;;;;;;;;5019323;28;61984;-78
2022/11/12 04:47:31;;;;;;;;;26.75;21.00;;;;;;;;5019756;28;61926;-78
2022/11/12 04:49:56;;;;;;;;;29.75;21.50;;;;;;;;5018047;28;62072;-78
2022/11/12 04:52:22;;;;;;;;;29.25;23.00;;;;;;;;5018827;28;61848;-78
2022/11/12 04:54:48;;;;;;;;;22.00;19.00;;;;;;;;5019087;28;61782;-78
2022/11/12 04:57:13;;;;;;;;;27.50;20.50;;;;;;;;5018571;28;61876;-78
2022/11/12 04:59:38;;;;;;;;;21.25;18.00;;;;;;;;5019329;28;61922;-78
2022/11/12 05:02:03;;;;;;;;;27.50;25.75;;;;;;;;5022036;28;63354;-78
2022/11/12 05:04:29;;;;;;;;;21.00;18.75;;;;;;;;5022945;28;62018;-78
2022/11/12 05:06:54;;;;;;;;;23.50;21.00;;;;;;;;5022932;28;61849;-78
2022/11/12 05:09:21;;;;;;;;;26.75;20.75;;;;;;;;5045975;28;61983;-78
2022/11/12 05:11:46;;;;;;;;;19.00;15.00;;;;;;;;5084701;28;63093;-78
2022/11/12 05:14:12;;;;;;;;;26.25;23.25;;;;;;;;5083534;27;61790;-78
2022/11/12 05:16:37;;;;;;;;;22.00;18.00;;;;;;;;5085482;27;61867;-78
2022/11/12 05:19:02;;;;;;;;;27.25;23.00;;;;;;;;5085263;28;61891;-78
2022/11/12 05:22:13;;;;;;;;;19.75;18.75;;;;;;;;5065959;28;62284;-78
2022/11/12 05:24:13;;;;;;;;;21.75;18.50;;;;;;;;5077998;28;61942;-78
2022/11/12 05:26:39;;;;;;;;;22.25;16.00;;;;;;;;5085242;27;61801;-78
2022/11/12 05:29:04;;;;;;;;;26.25;20.50;;;;;;;;5085478;27;61689;-78
2022/11/12 05:31:30;;;;;;;;;20.25;19.00;;;;;;;;5083390;28;64087;-78
2022/11/12 05:33:55;;;;;;;;;20.25;16.50;;;;;;;;5084213;28;61750;-78
2022/11/12 05:36:20;;;;;;;;;20.25;18.00;;;;;;;;5083940;27;61868;-78
2022/11/12 05:38:46;;;;;;;;;23.00;18.50;;;;;;;;5085646;27;61873;-78
2022/11/12 05:41:11;;;;;;;;;21.00;19.50;;;;;;;;5083989;27;62781;-78
2022/11/12 05:43:36;;;;;;;;;21.50;19.50;;;;;;;;5067032;28;61828;-78
2022/11/12 05:46:01;;;;;;;;;22.50;18.50;;;;;;;;5085062;28;61977;-78
2022/11/12 05:48:27;;;;;;;;;21.25;19.25;;;;;;;;5083354;27;62310;-78
2022/11/12 05:50:52;;;;;;;;;21.25;14.75;;;;;;;;5084561;28;63190;-78
2022/11/12 05:53:17;;;;;;;;;24.00;19.00;;;;;;;;5083761;27;61805;-78
2022/11/12 05:55:42;;;;;;;;;25.00;18.00;;;;;;;;5095624;27;61883;-78
2022/11/12 05:58:08;;;;;;;;;18.00;14.25;;;;;;;;5087389;27;61874;-78
2022/11/12 06:00:39;;;;;;;;;22.50;17.50;;;;;;;;5104134;27;62252;-78
2022/11/12 06:03:05;;;;;;;;;22.50;16.00;;;;;;;;5086818;27;61864;-78
2022/11/12 06:05:31;;;;;;;;;18.00;16.25;;;;;;;;5105517;27;62398;-78
2022/11/12 06:07:56;;;;;;;;;19.00;17.25;;;;;;;;5086718;27;61905;-78
2022/11/12 06:10:21;;;;;;;;;21.25;17.50;;;;;;;;5104469;27;61934;-78
2022/11/12 06:12:46;;;;;;;;;20.00;17.50;;;;;;;;5086916;27;61915;-78
2022/11/12 06:15:12;;;;;;;;;19.50;18.25;;;;;;;;5104809;27;62053;-78
2022/11/12 06:17:37;;;;;;;;;20.50;13.50;;;;;;;;5087033;27;61839;-78
2022/11/12 06:20:02;;;;;;;;;17.75;16.75;;;;;;;;5085905;27;61982;-78
2022/11/12 06:22:28;;;;;;;;;17.75;16.00;;;;;;;;5085645;27;61887;-78
2022/11/12 06:24:53;;;;;;;;;24.00;16.00;;;;;;;;5105227;27;61723;-78
2022/11/12 06:27:18;;;;;;;;;19.25;15.50;;;;;;;;5086926;27;62042;-78
2022/11/12 06:29:43;;;;;;;;;24.25;17.50;;;;;;;;5085413;27;63004;-78
2022/11/12 06:32:10;;;;;;;;;17.50;15.50;;;;;;;;5086655;27;61787;-78
2022/11/12 06:34:35;;;;;;;;;17.75;13.50;;;;;;;;5104333;27;62094;-78
2022/11/12 06:37:00;;;;;;;;;19.25;17.25;;;;;;;;5086387;27;61800;-78
2022/11/12 06:39:27;;;;;;;;;16.25;15.00;;;;;;;;5104085;27;62874;-78
2022/11/12 06:41:53;;;;;;;;;16.00;16.00;;;;;;;;5086167;27;62078;-78
2022/11/12 06:44:19;;;;;;;;;18.00;12.50;;;;;;;;5086604;27;61982;-78
2022/11/12 06:46:44;;;;;;;;;17.75;15.00;;;;;;;;5104654;27;62030;-78
2022/11/12 06:49:09;;;;;;;;;17.00;16.00;;;;;;;;5084948;27;64505;-78
2022/11/12 06:51:35;;;;;;;;;15.00;15.00;;;;;;;;5085831;27;61843;-78
2022/11/12 06:54:00;;;;;;;;;19.75;14.50;;;;;;;;5104835;27;61895;-78
2022/11/12 06:56:25;;;;;;;;;22.00;13.00;;;;;;;;5104387;27;61820;-78
2022/11/12 06:58:50;;;;;;;;;20.25;17.50;;;;;;;;5085219;27;62202;-78
2022/11/12 07:01:16;;;;;;;;;19.75;16.00;;;;;;;;5085505;27;62115;-79
2022/11/12 07:03:42;;;;;;;;;20.50;14.25;;;;;;;;5085877;27;61704;-78
2022/11/12 07:06:09;;;;;;;;;16.00;14.25;;;;;;;;5086017;27;61698;-78
2022/11/12 07:08:35;;;;;;;;;17.50;14.50;;;;;;;;5103678;27;62873;-78
2022/11/12 07:11:00;;;;;;;;;18.75;14.50;;;;;;;;5085695;27;62041;-78
2022/11/12 07:13:26;;;;;;;;;20.75;17.75;;;;;;;;5104513;27;61890;-78
2022/11/12 07:15:51;;;;;;;;;18.25;16.00;;;;;;;;5103831;27;61769;-78
2022/11/12 07:18:16;;;;;;;;;16.00;13.25;;;;;;;;5085284;27;63859;-78
2022/11/12 07:20:42;;;;;;;;;20.75;16.50;;;;;;;;5103292;27;61965;-77
2022/11/12 07:23:07;;;;;;;;;22.00;17.50;;;;;;;;5103506;27;61880;-77
2022/11/12 07:25:32;;;;;;;;;20.25;15.75;;;;;;;;5086105;27;61815;-77
2022/11/12 07:27:57;;;;;;;;;19.50;15.50;;;;;;;;5084899;27;62196;-78
2022/11/12 07:30:23;;;;;;;;;17.75;16.25;;;;;;;;5085373;27;61953;-78
2022/11/12 07:32:48;;;;;;;;;19.00;13.00;;;;;;;;5104114;27;61936;-77
2022/11/12 07:35:13;;;;;;;;;17.00;13.00;;;;;;;;5103861;27;61956;-77
2022/11/12 07:37:39;;;;;;;;;21.25;15.25;;;;;;;;5085207;27;64194;-75
2022/11/12 07:40:04;;;;;;;;;24.25;17.75;;;;;;;;5085308;27;62031;-76
2022/11/12 07:42:33;;;;;;;;;17.25;15.75;;;;;;;;5085240;27;62024;-77
2022/11/12 07:44:58;;;;;;;;;20.75;16.75;;;;;;;;5085291;27;61728;-77
2022/11/12 07:47:24;;;;;;;;;23.25;18.25;;;;;;;;5084986;27;63126;-81
2022/11/12 07:49:49;;;;;;;;;23.75;19.25;;;;;;;;5101992;27;62400;-76
2022/11/12 07:52:14;;;;;;;;;27.75;18.25;;;;;;;;5083813;27;62015;-80
2022/11/12 07:54:40;;;;;;;;;24.00;21.25;;;;;;;;5102623;27;61783;-80
2022/11/12 07:57:05;;;;;;;;;25.25;22.00;;;;;;;;5083671;27;63561;-78
2022/11/12 07:59:31;;;;;;;;;23.75;19.75;;;;;;;;5102335;27;62025;-77
2022/11/12 08:01:57;;;;;;;;;25.75;20.25;;;;;;;;5081395;27;62119;-78
2022/11/12 08:04:22;;;;;;;;;24.75;24.00;;;;;;;;5081931;27;61935;-78
2022/11/12 08:06:49;;;;;;;;;23.00;21.50;;;;;;;;5076741;27;61993;-78
2022/11/12 08:09:14;;;;;;;;;23.00;16.50;;;;;;;;5082282;27;61997;-78
2022/11/12 08:11:40;;;;;;;;;20.50;16.25;;;;;;;;5101548;27;61781;-78
2022/11/12 08:14:06;;;;;;;;;25.25;20.00;;;;;;;;5082431;27;61792;-78
2022/11/12 08:16:31;;;;;;;;;19.75;16.75;;;;;;;;5100679;27;62014;-78
2022/11/12 08:18:56;;;;;;;;;21.75;18.00;;;;;;;;5082439;27;61886;-77
2022/11/12 08:21:22;;;;;;;;;19.75;18.00;;;;;;;;5102262;27;61929;-77
2022/11/12 08:23:47;;;;;;;;;16.50;16.50;;;;;;;;5083453;27;62073;-77
2022/11/12 08:26:14;;;;;;;;;23.75;19.50;;;;;;;;5102145;27;62007;-77
2022/11/12 08:28:39;;;;;;;;;21.00;18.00;;;;;;;;5084302;27;61879;-77
2022/11/12 08:31:06;;;;;;;;;22.25;19.75;;;;;;;;5101016;27;62014;-78
2022/11/12 08:33:32;;;;;;;;;16.25;14.50;;;;;;;;5082424;27;61951;-78
2022/11/12 08:35:57;;;;;;;;;26.50;19.75;;;;;;;;5100421;27;62765;-78
2022/11/12 08:38:23;;;;;;;;;19.25;16.50;;;;;;;;5100621;27;61822;-78
2022/11/12 08:40:48;;;;;;;;;18.50;17.00;;;;;;;;5101481;27;61877;-78
2022/11/12 08:43:13;;;;;;;;;20.75;20.00;;;;;;;;5084269;27;61855;-78
2022/11/12 08:45:39;;;;;;;;;23.25;20.25;;;;;;;;5083630;27;61898;-78
2022/11/12 08:48:09;;;;;;;;;25.75;22.00;;;;;;;;5102366;27;61739;-78
2022/11/12 08:50:34;;;;;;;;;23.50;21.00;;;;;;;;5083832;27;61788;-78
2022/11/12 08:53:01;;;;;;;;;24.50;20.50;;;;;;;;5082293;27;62078;-78
2022/11/12 08:55:27;;;;;;;;;23.25;20.75;;;;;;;;5098021;27;61785;-78
2022/11/12 08:57:52;;;;;;;;;29.75;22.50;;;;;;;;5101504;27;61926;-78
2022/11/12 09:00:17;;;;;;;;;28.00;20.50;;;;;;;;5100538;27;61811;-77
2022/11/12 09:02:43;;;;;;;;;25.75;19.50;;;;;;;;5101035;27;62009;-78
2022/11/12 09:05:08;;;;;;;;;27.50;19.00;;;;;;;;5085407;27;63414;-77
2022/11/12 09:07:33;;;;;;;;;28.50;19.50;;;;;;;;5100555;27;62150;-82
2022/11/12 09:09:59;;;;;;;;;26.25;20.50;;;;;;;;5101150;27;61989;-77
2022/11/12 09:12:25;;;;;;;;;20.50;19.00;;;;;;;;5101149;27;61818;-81
2022/11/12 09:14:50;;;;;;;;;27.50;23.50;;;;;;;;5081903;27;62061;-77
2022/11/12 09:17:15;;;;;;;;;23.50;21.00;;;;;;;;5081864;27;62121;-81
2022/11/12 09:19:41;;;;;;;;;35.50;23.00;;;;;;;;5100684;27;61815;-79
2022/11/12 09:22:06;;;;;;;;;24.50;22.00;;;;;;;;5101265;27;62114;-79
2022/11/12 09:24:32;;;;;;;;;19.50;17.25;;;;;;;;5100371;27;62952;-79
2022/11/12 09:26:57;;;;;;;;;22.75;21.00;;;;;;;;5101327;27;61831;-80
2022/11/12 09:29:22;;;;;;;;;29.50;21.00;;;;;;;;5100680;27;61653;-79
2022/11/12 09:31:48;;;;;;;;;25.25;21.00;;;;;;;;5082155;27;62162;-79
2022/11/12 09:34:13;;;;;;;;;25.50;22.50;;;;;;;;5083117;27;62828;-79
2022/11/12 09:36:38;;;;;;;;;25.50;23.50;;;;;;;;5102503;27;61771;-79
2022/11/12 09:39:04;;;;;;;;;29.75;20.50;;;;;;;;5083935;27;61820;-78
2022/11/12 09:41:37;;;;;;;;;32.50;22.50;;;;;;;;5083773;27;61929;-78
2022/11/12 09:44:03;;;;;;;;;28.25;23.50;;;;;;;;5083084;27;62139;-79
2022/11/12 09:46:42;;;;;;;;;24.75;18.00;;;;;;;;5084850;27;61888;-79
2022/11/12 09:49:37;;;;;;;;;31.75;23.00;;;;;;;;5087050;27;62083;-80
2022/11/12 09:52:05;;;;;;;;;25.50;22.25;;;;;;;;5005873;28;61807;-79
2022/11/12 09:54:31;;;;;;;;;25.50;22.25;;;;;;;;5021139;28;62092;-80
2022/11/12 09:56:57;;;;;;;;;28.75;21.75;;;;;;;;5022495;28;61956;-80
2022/11/12 09:59:25;;;;;;;;;27.00;23.25;;;;;;;;5005400;28;62197;-80
2022/11/12 10:01:57;;;;;;;;;25.75;20.00;;;;;;;;5021637;28;62245;-80
2022/11/12 10:04:32;;;;;;;;;31.00;26.00;;;;;;;;5004690;28;61789;-80
2022/11/12 10:07:04;;;;;;;;;30.75;24.75;;;;;;;;5005396;28;61708;-80
2022/11/12 10:09:53;;;;;;;;;33.25;24.75;;;;;;;;5020725;28;62093;-80
2022/11/12 10:12:37;;;;;;;;;28.75;22.75;;;;;;;;5012733;28;62486;-80
2022/11/12 10:16:41;;;;;;;;;26.25;23.25;;;;;;;;5002947;28;62231;-80
2022/11/12 10:17:51;;;;;;;;;27.00;19.50;;;;;;;;5002111;28;62213;-80
2022/11/12 10:20:25;;;;;;;;;28.25;21.50;;;;;;;;5001544;28;61768;-79
2022/11/12 10:23:05;;;;;;;;;24.75;19.50;;;;;;;;5002331;28;62212;-79
2022/11/12 10:25:31;;;;;;;;;17.50;16.25;;;;;;;;5004555;28;61768;-80
2022/11/12 10:27:58;;;;;;;;;23.00;20.75;;;;;;;;5043824;27;62006;-79
2022/11/12 10:30:24;;;;;;;;;24.50;19.75;;;;;;;;5085608;27;62030;-80
2022/11/12 10:32:50;;;;;;;;;21.00;16.00;;;;;;;;5086642;27;62077;-79
2022/11/12 10:35:17;;;;;;;;;28.75;19.50;;;;;;;;5085241;27;63262;-79
2022/11/12 10:38:11;;;;;;;;;18.00;17.50;;;;;;;;5085870;27;62027;-85
2022/11/12 10:40:40;;;;;;;;;30.00;20.50;;;;;;;;5070352;27;61911;-79
2022/11/12 10:43:26;;;;;;;;;21.75;18.75;;;;;;;;5065891;28;62005;-79
2022/11/12 10:45:51;;;;;;;;;26.50;20.00;;;;;;;;5083057;28;63193;-79
2022/11/12 10:48:26;;;;;;;;;26.50;18.50;;;;;;;;5065864;28;61888;-81
2022/11/12 10:50:51;;;;;;;;;25.50;23.00;;;;;;;;5084023;27;61696;-80
2022/11/12 10:53:28;;;;;;;;;24.50;18.25;;;;;;;;5066185;28;61697;-80
2022/11/12 10:55:58;;;;;;;;;23.75;18.25;;;;;;;;5095757;27;62708;-79
2022/11/12 10:58:24;;;;;;;;;25.75;22.50;;;;;;;;5084626;27;62088;-80
2022/11/12 11:01:00;;;;;;;;;27.00;21.25;;;;;;;;5084248;27;62576;-78
2022/11/12 11:03:52;;;;;;;;;23.00;22.00;;;;;;;;5103821;27;61913;-80
2022/11/12 11:06:22;;;;;;;;;27.50;21.00;;;;;;;;5085391;27;64098;-79
2022/11/12 11:08:51;;;;;;;;;25.00;20.75;;;;;;;;5103966;27;61827;-79
2022/11/12 11:11:22;;;;;;;;;23.00;19.00;;;;;;;;5103362;27;62062;-81
2022/11/12 11:13:49;;;;;;;;;29.00;20.75;;;;;;;;5084751;27;61824;-79
2022/11/12 11:16:16;;;;;;;;;21.00;19.00;;;;;;;;5083351;27;63657;-80
2022/11/12 11:18:45;;;;;;;;;22.25;20.00;;;;;;;;5084742;27;62118;-80
2022/11/12 11:21:20;;;;;;;;;20.00;15.75;;;;;;;;5085337;27;61872;-79
2022/11/12 11:23:57;;;;;;;;;16.25;14.50;;;;;;;;5103565;27;61852;-80
2022/11/12 11:26:33;;;;;;;;;31.75;20.50;;;;;;;;5084553;27;62161;-80
2022/11/12 11:29:06;;;;;;;;;29.00;21.50;;;;;;;;5103146;27;61908;-80
2022/11/12 11:32:01;;;;;;;;;23.25;17.25;;;;;;;;5103256;27;62046;-79
2022/11/12 11:34:32;;;;;;;;;23.25;21.00;;;;;;;;5078193;27;61784;-79
2022/11/12 11:37:04;;;;;;;;;19.00;17.00;;;;;;;;5096674;27;62048;-78
2022/11/12 11:39:50;;;;;;;;;25.00;22.00;;;;;;;;5102167;27;61831;-80
2022/11/12 11:42:23;;;;;;;;;29.25;22.75;;;;;;;;5064420;28;62067;-82
2022/11/12 11:44:48;;;;;;;;;32.00;26.25;;;;;;;;5084291;27;62276;-80
2022/11/12 11:47:19;;;;;;;;;29.25;22.50;;;;;;;;5082771;27;63241;-83
2022/11/12 11:50:11;;;;;;;;;31.25;28.25;;;;;;;;5101830;27;62107;-81
2022/11/12 11:52:44;;;;;;;;;28.25;23.00;;;;;;;;5019514;28;61423;-82
2022/11/12 11:55:19;;;;;;;;;32.75;25.75;;;;;;;;5003500;28;61925;-81
2022/11/12 11:58:03;;;;;;;;;34.50;24.00;;;;;;;;5007661;28;61978;-82
2022/11/12 12:00:44;;;;;;;;;34.25;22.75;;;;;;;;5006331;28;61824;-82
2022/11/12 12:03:30;;;;;;;;;29.25;23.75;;;;;;;;5019324;28;61859;-81
2022/11/12 12:06:01;;;;;;;;;25.00;25.00;;;;;;;;5002737;28;62095;-81
2022/11/12 12:08:33;;;;;;;;;32.75;25.50;;;;;;;;5001426;28;63232;-81
2022/11/12 12:11:23;;;;;;;;;29.50;23.25;;;;;;;;5018302;28;62083;-83
2022/11/12 12:13:54;;;;;;;;;29.00;25.25;;;;;;;;4960128;28;62067;-81
2022/11/12 12:16:25;;;;;;;;;36.25;24.50;;;;;;;;4944049;28;62215;-81
2022/11/12 12:18:53;;;;;;;;;26.50;23.00;;;;;;;;4958339;28;62059;-79
2022/11/12 12:21:20;;;;;;;;;34.75;28.50;;;;;;;;4949373;28;62011;-77
2022/11/12 12:24:00;;;;;;;;;30.25;26.75;;;;;;;;4958181;28;62039;-77
2022/11/12 12:26:29;;;;;;;;;31.50;24.75;;;;;;;;4958579;28;62074;-78
2022/11/12 12:29:04;;;;;;;;;26.75;22.25;;;;;;;;4979023;28;62125;-78
2022/11/12 12:31:36;;;;;;;;;33.25;31.25;;;;;;;;5034394;28;62181;-82
2022/11/12 12:34:04;;;;;;;;;36.50;29.75;;;;;;;;5046241;28;62041;-83
2022/11/12 12:36:38;;;;;;;;;31.75;26.00;;;;;;;;5034843;28;61965;-81
2022/11/12 12:39:22;;;;;;;;;32.00;26.25;;;;;;;;5036158;28;62025;-77
2022/11/12 12:41:55;;;;;;;;;31.50;26.50;;;;;;;;5036361;28;61977;-78
2022/11/12 12:44:58;;;;;;;;;40.25;30.25;;;;;;;;5035380;28;61889;-79
2022/11/12 12:47:09;;;;;;;;;33.50;28.00;;;;;;;;5037752;28;61856;-79
2022/11/12 12:49:35;;;;;;;;;30.00;27.50;;;;;;;;5036976;28;62132;-81
2022/11/12 12:52:01;;;;;;;;;33.50;26.00;;;;;;;;5100279;27;61990;-81
2022/11/12 12:54:41;;;;;;;;;30.50;26.75;;;;;;;;5101892;27;61982;-80
2022/11/12 12:57:27;;;;;;;;;34.50;25.75;;;;;;;;5082755;27;62361;-78
2022/11/12 13:00:12;;;;;;;;;31.00;26.25;;;;;;;;5080932;27;63363;-80
2022/11/12 13:02:37;;;;;;;;;28.50;23.25;;;;;;;;5066910;27;62177;-78
2022/11/12 13:05:03;;;;;;;;;32.75;25.75;;;;;;;;5082133;27;61828;-78
2022/11/12 13:07:43;;;;;;;;;29.25;24.25;;;;;;;;5106882;27;62051;-78
2022/11/12 13:10:27;;;;;;;;;26.75;24.50;;;;;;;;5087615;27;62924;-78
2022/11/12 13:13:03;;;;;;;;;32.00;26.50;;;;;;;;5104210;27;61934;-78
2022/11/12 13:15:55;;;;;;;;;27.25;25.25;;;;;;;;5104977;27;61964;-78
2022/11/12 13:18:35;;;;;;;;;26.75;25.00;;;;;;;;5100634;27;61793;-78
2022/11/12 13:21:11;;;;;;;;;24.50;22.50;;;;;;;;5107079;27;61733;-78
2022/11/12 13:26:50;;;;;;;;;23.50;19.50;;;;;;;;5104758;27;61959;-78
2022/11/12 13:29:17;;;;;;;;;25.25;20.75;;;;;;;;5105913;27;62158;-78
2022/11/12 13:31:42;;;;;;;;;27.25;23.50;;;;;;;;5108174;27;62912;-78
2022/11/12 13:34:12;;;;;;;;;25.00;23.00;;;;;;;;5085022;27;61789;-78
2022/11/12 13:36:37;;;;;;;;;22.33;20.67;;;;;;;;5106551;27;62072;-78
2022/11/12 13:39:11;;;;;;;;;27.25;21.25;;;;;;;;5107318;27;61987;-78
2022/11/12 13:44:20;;;;;;;;;27.25;23.00;;;;;;;;5104952;27;61774;-78
2022/11/12 13:46:49;;;;;;;;;18.75;15.75;;;;;;;;5106243;27;62125;-78
2022/11/12 13:49:15;;;;;;;;;23.75;23.00;;;;;;;;5084739;27;62125;-78
2022/11/12 13:51:45;;;;;;;;;28.25;22.75;;;;;;;;5085602;27;61882;-78
2022/11/12 13:54:26;;;;;;;;;31.75;25.00;;;;;;;;5101815;27;61944;-78
2022/11/12 13:56:51;;;;;;;;;28.75;25.50;;;;;;;;5083949;27;61724;-78
2022/11/12 13:59:18;;;;;;;;;33.75;26.00;;;;;;;;5105676;27;62014;-77
2022/11/12 14:01:45;;;;;;;;;27.50;25.00;;;;;;;;5086128;27;62006;-78
2022/11/12 14:04:12;;;;;;;;;24.25;22.50;;;;;;;;5088567;27;61953;-78
2022/11/12 14:06:40;;;;;;;;;30.75;28.25;;;;;;;;5104950;27;62055;-78
2022/11/12 14:09:17;;;;;;;;;28.75;24.75;;;;;;;;5096576;27;61847;-78
2022/11/12 14:11:55;;;;;;;;;30.00;25.25;;;;;;;;5088573;27;61827;-78
2022/11/12 14:14:32;;;;;;;;;26.75;21.00;;;;;;;;5091379;27;62316;-78
2022/11/12 14:17:21;;;;;;;;;26.00;21.75;;;;;;;;5123521;27;61834;-79
2022/11/12 14:19:52;;;;;;;;;30.50;28.75;;;;;;;;5095734;27;61887;-80
2022/11/12 14:22:18;;;;;;;;;31.25;29.00;;;;;;;;5089832;27;64468;-79
2022/11/12 14:24:45;;;;;;;;;26.75;25.25;;;;;;;;5097313;27;62200;-79
2022/11/12 14:27:40;;;;;;;;;33.50;28.50;;;;;;;;5095730;27;61900;-79
2022/11/12 14:30:16;;;;;;;;;32.00;24.75;;;;;;;;5097091;27;61988;-79
2022/11/12 14:32:43;;;;;;;;;34.25;26.50;;;;;;;;5106947;27;62765;-79
2022/11/12 14:35:23;;;;;;;;;29.25;26.25;;;;;;;;5111055;27;61815;-79
2022/11/12 14:38:02;;;;;;;;;33.00;29.75;;;;;;;;5111046;27;62078;-79
2022/11/12 14:40:29;;;;;;;;;29.50;26.25;;;;;;;;5108756;27;62173;-78
2022/11/12 14:42:54;;;;;;;;;37.50;26.75;;;;;;;;5086759;27;62277;-79
2022/11/12 14:45:21;;;;;;;;;38.50;31.25;;;;;;;;5083591;27;61868;-78